createdAt,value
2023-05-06T00:01:24.364Z,101228.53
2023-05-06T00:03:51.252Z,101234.75
2023-05-06T00:06:17.971Z,101223.72
2023-05-06T00:08:46.139Z,101210.38
2023-05-06T00:11:13.870Z,101215.00
2023-05-06T00:13:41.224Z,101183.34
2023-05-06T00:16:10.824Z,101234.38
2023-05-06T00:18:37.312Z,101195.78
2023-05-06T00:21:04.183Z,101192.25
2023-05-06T00:23:30.873Z,101172.06
2023-05-06T00:25:57.887Z,101180.84
2023-05-06T00:28:25.046Z,101172.72
2023-05-06T00:30:51.904Z,101162.56
2023-05-06T00:33:18.464Z,101212.22
2023-05-06T00:35:45.364Z,101188.50
2023-05-06T00:38:13.864Z,101208.97
2023-05-06T00:40:40.947Z,101162.97
2023-05-06T00:43:08.201Z,101162.16
2023-05-06T00:45:35.441Z,101165.38
2023-05-06T00:48:03.244Z,101185.28
2023-05-06T00:50:32.528Z,101166.28
2023-05-06T00:53:00.167Z,101175.19
2023-05-06T00:55:29.049Z,101162.06
2023-05-06T00:57:56.032Z,101203.00
2023-05-06T01:00:23.255Z,101160.78
2023-05-06T01:02:49.933Z,101135.78
2023-05-06T01:05:17.897Z,101179.09
2023-05-06T01:08:16.683Z,101179.91
2023-05-06T01:11:02.471Z,101162.91
2023-05-06T01:13:45.497Z,101162.25
2023-05-06T01:16:14.127Z,101167.09
2023-05-06T01:18:43.387Z,101177.28
2023-05-06T01:21:12.695Z,101165.13
2023-05-06T01:23:54.284Z,101162.22
2023-05-06T01:26:21.554Z,101148.38
2023-05-06T01:28:48.543Z,101163.66
2023-05-06T01:31:40.982Z,101172.06
2023-05-06T01:34:27.852Z,101167.56
2023-05-06T01:51:29.788Z,101145.81
2023-05-06T01:53:56.182Z,101177.38
2023-05-06T01:56:22.653Z,101157.25
2023-05-06T01:58:49.084Z,101171.44
2023-05-06T02:01:15.682Z,101177.25
2023-05-06T02:03:42.193Z,101164.38
2023-05-06T02:06:08.725Z,101169.25
2023-05-06T02:08:35.160Z,101155.56
2023-05-06T02:11:01.574Z,101179.47
2023-05-06T02:13:28.087Z,101184.81
2023-05-06T02:15:55.234Z,101180.22
2023-05-06T02:18:22.196Z,101167.91
2023-05-06T02:20:48.631Z,101176.50
2023-05-06T02:23:15.077Z,101162.56
2023-05-06T02:25:41.500Z,101153.94
2023-05-06T02:28:08.014Z,101164.84
2023-05-06T02:30:34.904Z,101150.13
2023-05-06T02:33:01.437Z,101146.66
2023-05-06T02:35:27.969Z,101154.03
2023-05-06T02:37:54.417Z,101144.19
2023-05-06T02:40:20.828Z,101152.59
2023-05-06T02:42:47.316Z,101158.03
2023-05-06T02:45:13.906Z,101147.91
2023-05-06T02:47:40.590Z,101154.44
2023-05-06T02:50:07.185Z,101166.38
2023-05-06T02:52:34.628Z,101149.16
2023-05-06T02:55:02.147Z,101145.84
2023-05-06T02:57:28.773Z,101144.06
2023-05-06T02:59:55.209Z,101133.94
2023-05-06T03:02:21.737Z,101147.88
2023-05-06T03:04:48.218Z,101140.19
2023-05-06T03:07:14.628Z,101150.88
2023-05-06T03:09:41.066Z,101164.72
2023-05-06T03:12:07.496Z,101144.25
2023-05-06T03:14:34.070Z,101158.84
2023-05-06T03:17:00.543Z,101177.50
2023-05-06T03:19:27.037Z,101182.50
2023-05-06T03:21:53.504Z,101175.22
2023-05-06T03:24:20.312Z,101167.88
2023-05-06T03:26:46.659Z,101175.25
2023-05-06T03:29:13.133Z,101178.34
2023-05-06T03:31:39.697Z,101167.84
2023-05-06T03:34:06.330Z,101147.81
2023-05-06T03:36:33.088Z,101154.88
2023-05-06T03:38:59.419Z,101155.84
2023-05-06T03:41:25.876Z,101151.09
2023-05-06T03:43:52.798Z,101156.19
2023-05-06T03:46:19.263Z,101146.59
2023-05-06T03:48:45.748Z,101149.91
2023-05-06T03:51:12.249Z,101151.63
2023-05-06T03:53:38.715Z,101145.69
2023-05-06T03:56:05.564Z,101142.81
2023-05-06T03:58:32.017Z,101139.00
2023-05-06T04:01:00.959Z,101133.34
2023-05-06T04:03:27.589Z,101151.09
2023-05-06T04:05:54.118Z,101134.66
2023-05-06T04:08:20.601Z,101127.03
2023-05-06T04:10:47.077Z,101123.91
2023-05-06T04:13:13.536Z,101126.88
2023-05-06T04:15:41.554Z,101142.44
2023-05-06T04:18:08.309Z,101142.38
2023-05-06T04:20:34.926Z,101151.38
2023-05-06T04:23:01.812Z,101150.97
2023-05-06T04:25:28.789Z,101159.63
2023-05-06T04:27:55.257Z,101144.16
2023-05-06T04:30:22.560Z,101145.72
2023-05-06T04:32:51.498Z,101150.09
2023-05-06T04:35:18.072Z,101167.97
2023-05-06T04:37:44.627Z,101164.03
2023-05-06T04:40:13.781Z,101154.28
2023-05-06T04:42:40.304Z,101166.88
2023-05-06T04:45:07.476Z,101172.22
2023-05-06T04:47:34.218Z,101167.78
2023-05-06T04:50:01.004Z,101161.63
2023-05-06T04:52:27.431Z,101181.03
2023-05-06T04:54:53.878Z,101168.31
2023-05-06T04:57:20.357Z,101180.38
2023-05-06T04:59:46.828Z,101168.22
2023-05-06T05:02:13.476Z,101171.53
2023-05-06T05:04:39.919Z,101180.19
2023-05-06T05:07:07.527Z,101179.84
2023-05-06T05:09:35.435Z,101197.06
2023-05-06T05:12:03.080Z,101175.88
2023-05-06T05:14:29.832Z,101195.97
2023-05-06T05:16:56.287Z,101196.31
2023-05-06T05:19:22.845Z,101192.78
2023-05-06T05:21:49.728Z,101211.28
2023-05-06T05:24:16.366Z,101199.31
2023-05-06T05:26:42.830Z,101194.09
2023-05-06T05:29:09.339Z,101202.03
2023-05-06T05:31:35.949Z,101194.06
2023-05-06T05:34:02.451Z,101206.38
2023-05-06T05:36:29.057Z,101177.34
2023-05-06T05:38:55.580Z,101183.63
2023-05-06T05:41:22.015Z,101195.03
2023-05-06T05:43:48.477Z,101200.03
2023-05-06T05:46:15.272Z,101198.09
2023-05-06T05:48:41.995Z,101206.72
2023-05-06T05:51:08.513Z,101193.03
2023-05-06T05:53:34.971Z,101199.00
2023-05-06T05:56:01.435Z,101203.53
2023-05-06T05:58:27.917Z,101185.88
2023-05-06T06:00:54.391Z,101201.22
2023-05-06T06:03:21.059Z,101211.53
2023-05-06T06:05:49.465Z,101222.66
2023-05-06T06:08:18.396Z,101207.69
2023-05-06T06:10:45.253Z,101203.97
2023-05-06T06:13:11.964Z,101221.63
2023-05-06T06:15:39.009Z,101180.31
2023-05-06T06:18:08.989Z,101194.41
2023-05-06T06:20:37.488Z,101198.53
2023-05-06T06:23:04.390Z,101185.13
2023-05-06T06:25:31.035Z,101177.84
2023-05-06T06:27:57.544Z,101185.28
2023-05-06T06:30:24.512Z,101209.25
2023-05-06T06:32:52.983Z,101184.19
2023-05-06T06:35:23.550Z,101195.44
2023-05-06T06:37:50.587Z,101202.75
2023-05-06T06:40:17.280Z,101200.22
2023-05-06T06:42:43.846Z,101178.50
2023-05-06T06:45:11.438Z,101202.84
2023-05-06T06:47:38.626Z,101229.53
2023-05-06T06:50:06.027Z,101214.53
2023-05-06T06:52:32.751Z,101224.38
2023-05-06T06:54:59.188Z,101227.66
2023-05-06T06:57:25.993Z,101207.78
2023-05-06T06:59:53.814Z,101227.84
2023-05-06T07:02:23.596Z,101180.41
2023-05-06T07:04:50.277Z,101179.81
2023-05-06T07:07:23.552Z,101186.38
2023-05-06T07:09:50.273Z,101195.53
2023-05-06T07:12:16.958Z,101208.53
2023-05-06T07:14:43.734Z,101219.06
2023-05-06T07:17:10.411Z,101228.63
2023-05-06T07:19:37.370Z,101227.28
2023-05-06T07:22:04.067Z,101203.66
2023-05-06T07:24:33.984Z,101203.88
2023-05-06T07:27:01.630Z,101204.66
2023-05-06T07:29:28.367Z,101185.66
2023-05-06T07:31:54.933Z,101238.34
2023-05-06T07:34:26.450Z,101206.81
2023-05-06T07:36:56.335Z,101190.25
2023-05-06T07:39:23.125Z,101178.22
2023-05-06T07:41:49.744Z,101236.53
2023-05-06T07:44:16.526Z,101214.81
2023-05-06T07:46:43.162Z,101232.31
2023-05-06T07:49:09.877Z,101209.00
2023-05-06T07:51:36.370Z,101209.41
2023-05-06T07:54:03.225Z,101226.22
2023-05-06T07:56:29.699Z,101237.00
2023-05-06T07:58:56.279Z,101226.97
2023-05-06T08:01:22.847Z,101232.81
2023-05-06T08:03:49.677Z,101199.16
2023-05-06T08:06:16.446Z,101214.59
2023-05-06T08:08:43.007Z,101251.72
2023-05-06T08:11:09.556Z,101210.34
2023-05-06T08:13:36.031Z,101242.56
2023-05-06T08:16:02.768Z,101265.94
2023-05-06T08:18:29.369Z,101271.44
2023-05-06T08:20:56.086Z,101258.34
2023-05-06T08:23:22.795Z,101225.41
2023-05-06T08:25:51.049Z,101264.81
2023-05-06T08:28:17.934Z,101249.03
2023-05-06T08:30:47.693Z,101251.47
2023-05-06T08:33:14.513Z,101242.31
2023-05-06T08:35:41.211Z,101268.50
2023-05-06T08:38:08.867Z,101250.06
2023-05-06T08:40:43.265Z,101248.88
2023-05-06T08:43:14.858Z,101242.41
2023-05-06T08:45:43.722Z,101243.16
2023-05-06T08:48:10.605Z,101270.28
2023-05-06T08:50:42.490Z,101252.63
2023-05-06T08:53:12.012Z,101265.38
2023-05-06T08:55:40.938Z,101267.16
2023-05-06T08:58:08.171Z,101302.59
2023-05-06T09:00:35.425Z,101275.38
2023-05-06T09:03:02.019Z,101276.75
2023-05-06T09:05:28.997Z,101282.13
2023-05-06T09:07:55.693Z,101290.81
2023-05-06T09:10:22.450Z,101309.34
2023-05-06T09:12:48.914Z,101315.03
2023-05-06T09:15:15.442Z,101297.72
2023-05-06T09:17:42.009Z,101292.81
2023-05-06T09:20:12.006Z,101323.69
2023-05-06T09:22:40.308Z,101297.28
2023-05-06T09:25:07.500Z,101318.56
2023-05-06T09:27:36.662Z,101306.53
2023-05-06T09:30:14.201Z,101305.72
2023-05-06T09:32:41.159Z,101314.88
2023-05-06T09:35:09.449Z,101319.50
2023-05-06T09:37:36.326Z,101322.59
2023-05-06T09:40:02.807Z,101310.63
2023-05-06T09:42:30.697Z,101327.06
2023-05-06T09:45:07.503Z,101318.81
2023-05-06T09:47:35.198Z,101319.00
2023-05-06T09:50:03.274Z,101314.34
2023-05-06T09:52:31.133Z,101321.31
2023-05-06T09:54:58.037Z,101321.59
2023-05-06T09:57:25.802Z,101338.91
2023-05-06T09:59:54.086Z,101337.88
2023-05-06T10:02:23.287Z,101329.91
2023-05-06T10:04:52.980Z,101332.50
2023-05-06T10:07:25.649Z,101323.72
2023-05-06T10:09:54.365Z,101328.41
2023-05-06T10:12:21.033Z,101337.28
2023-05-06T10:14:47.449Z,101348.19
2023-05-06T10:17:14.404Z,101333.91
2023-05-06T10:19:47.289Z,101332.63
2023-05-06T10:22:37.222Z,101342.00
2023-05-06T10:25:11.009Z,101346.31
2023-05-06T10:27:40.833Z,101356.06
2023-05-06T10:30:10.163Z,101347.97
2023-05-06T10:32:41.300Z,101356.78
2023-05-06T10:35:14.789Z,101351.22
2023-05-06T10:37:42.946Z,101344.94
2023-05-06T10:40:10.277Z,101342.69
2023-05-06T10:42:36.697Z,101331.09
2023-05-06T10:45:05.103Z,101336.94
2023-05-06T10:48:03.766Z,101336.41
2023-05-06T10:50:30.325Z,101360.72
2023-05-06T10:52:59.120Z,101353.34
2023-05-06T10:55:33.654Z,101346.31
2023-05-06T10:58:12.804Z,101357.59
2023-05-06T11:00:39.458Z,101331.00
2023-05-06T11:03:08.376Z,101310.03
2023-05-06T11:05:51.982Z,101357.38
2023-05-06T11:08:23.649Z,101338.50
2023-05-06T11:10:50.187Z,101341.06
2023-05-06T11:13:19.001Z,101343.72
2023-05-06T11:15:46.444Z,101326.09
2023-05-06T11:18:25.235Z,101368.97
2023-05-06T11:21:12.657Z,101357.47
2023-05-06T11:23:42.481Z,101374.16
2023-05-06T11:26:10.443Z,101377.59
2023-05-06T11:28:37.542Z,101380.47
2023-05-06T11:31:04.444Z,101378.47
2023-05-06T11:33:36.660Z,101384.88
2023-05-06T11:36:04.595Z,101361.31
2023-05-06T11:38:44.812Z,101380.97
2023-05-06T11:41:13.004Z,101371.06
2023-05-06T11:43:39.862Z,101383.63
2023-05-06T11:46:06.634Z,101388.22
2023-05-06T11:48:33.164Z,101387.72
2023-05-06T11:51:00.103Z,101403.75
2023-05-06T11:53:26.612Z,101389.69
2023-05-06T11:55:54.036Z,101391.94
2023-05-06T11:58:24.948Z,101406.03
2023-05-06T12:01:03.166Z,101399.84
2023-05-06T12:03:31.434Z,101388.06
2023-05-06T12:05:59.250Z,101390.91
2023-05-06T12:08:31.705Z,101389.03
2023-05-06T12:11:02.015Z,101406.84
2023-05-06T12:13:29.571Z,101414.34
2023-05-06T12:15:58.871Z,101408.41
2023-05-06T12:18:26.221Z,101423.84
2023-05-06T12:20:56.383Z,101421.75
2023-05-06T12:23:23.485Z,101429.69
2023-05-06T12:26:08.450Z,101437.16
2023-05-06T12:28:36.773Z,101445.91
2023-05-06T12:31:20.159Z,101454.13
2023-05-06T12:33:49.799Z,101455.25
2023-05-06T12:36:17.465Z,101448.69
2023-05-06T12:38:52.547Z,101461.00
2023-05-06T12:41:23.376Z,101445.22
2023-05-06T12:43:50.284Z,101452.31
2023-05-06T12:46:17.293Z,101472.66
2023-05-06T12:48:56.865Z,101459.19
2023-05-06T12:51:23.777Z,101467.41
2023-05-06T12:53:50.263Z,101469.22
2023-05-06T12:56:16.706Z,101465.47
2023-05-06T12:58:43.120Z,101474.06
2023-05-06T13:01:09.543Z,101465.34
2023-05-06T13:03:38.577Z,101481.13
2023-05-06T13:06:05.761Z,101465.56
2023-05-06T13:08:32.186Z,101476.63
2023-05-06T13:10:59.741Z,101470.78
2023-05-06T13:13:26.192Z,101472.34
2023-05-06T13:15:53.547Z,101485.06
2023-05-06T13:18:19.964Z,101479.13
2023-05-06T13:20:46.388Z,101457.41
2023-05-06T13:23:12.811Z,101469.53
2023-05-06T13:25:51.712Z,101465.25
2023-05-06T13:28:25.630Z,101466.28
2023-05-06T13:30:52.162Z,101473.88
2023-05-06T13:33:18.641Z,101465.25
2023-05-06T13:35:45.084Z,101472.16
2023-05-06T13:38:11.483Z,101471.53
2023-05-06T13:40:37.904Z,101469.91
2023-05-06T13:43:04.379Z,101468.19
2023-05-06T13:45:33.614Z,101473.88
2023-05-06T13:48:00.213Z,101469.13
2023-05-06T13:50:26.659Z,101468.34
2023-05-06T13:52:53.088Z,101465.44
2023-05-06T13:55:19.690Z,101467.59
2023-05-06T13:57:46.127Z,101464.09
2023-05-06T14:00:13.146Z,101461.63
2023-05-06T14:02:39.667Z,101463.19
2023-05-06T14:05:06.776Z,101459.13
2023-05-06T14:07:33.806Z,101472.22
2023-05-06T14:10:00.735Z,101460.31
2023-05-06T14:12:27.284Z,101457.72
2023-05-06T14:14:54.249Z,101465.16
2023-05-06T14:17:23.132Z,101442.81
2023-05-06T14:19:49.631Z,101447.06
2023-05-06T14:22:16.051Z,101455.59
2023-05-06T14:24:42.453Z,101465.34
2023-05-06T14:27:12.721Z,101482.25
2023-05-06T14:29:42.598Z,101472.22
2023-05-06T14:32:09.646Z,101480.66
2023-05-06T14:34:36.907Z,101470.41
2023-05-06T14:37:03.602Z,101471.38
2023-05-06T14:39:30.055Z,101474.72
2023-05-06T14:41:56.477Z,101474.91
2023-05-06T14:44:22.934Z,101476.56
2023-05-06T14:46:49.892Z,101483.44
2023-05-06T14:49:16.526Z,101494.75
2023-05-06T14:51:43.410Z,101482.13
2023-05-06T14:54:10.306Z,101491.97
2023-05-06T14:56:37.239Z,101488.34
2023-05-06T14:59:04.274Z,101483.69
2023-05-06T15:01:32.233Z,101513.56
2023-05-06T15:03:58.778Z,101503.53
2023-05-06T15:06:25.414Z,101498.66
2023-05-06T15:08:52.121Z,101492.72
2023-05-06T15:11:18.567Z,101499.16
2023-05-06T15:13:45.061Z,101516.38
2023-05-06T15:16:11.721Z,101514.03
2023-05-06T15:18:38.283Z,101521.91
2023-05-06T15:21:04.841Z,101511.47
2023-05-06T15:23:31.282Z,101503.63
2023-05-06T15:25:58.227Z,101499.94
2023-05-06T15:28:24.890Z,101511.38
2023-05-06T15:30:51.462Z,101510.66
2023-05-06T15:33:17.941Z,101496.81
2023-05-06T15:35:44.644Z,101484.88
2023-05-06T15:38:11.094Z,101511.28
2023-05-06T15:40:40.523Z,101527.97
2023-05-06T15:43:08.468Z,101516.00
2023-05-06T15:45:35.409Z,101499.91
2023-05-06T15:48:01.857Z,101511.38
2023-05-06T15:50:33.289Z,101507.31
2023-05-06T15:53:01.156Z,101505.44
2023-05-06T15:55:27.754Z,101491.19
2023-05-06T15:57:59.827Z,101507.19
2023-05-06T16:00:27.878Z,101501.84
2023-05-06T16:02:54.521Z,101511.13
2023-05-06T16:05:21.004Z,101509.78
2023-05-06T16:07:48.485Z,101514.94
2023-05-06T16:10:14.917Z,101507.53
2023-05-06T16:12:41.497Z,101504.75
2023-05-06T16:15:08.551Z,101496.28
2023-05-06T16:17:37.650Z,101514.59
2023-05-06T16:20:05.347Z,101530.25
2023-05-06T16:22:31.859Z,101508.03
2023-05-06T16:24:58.335Z,101531.28
2023-05-06T16:27:27.433Z,101526.19
2023-05-06T16:29:53.943Z,101529.19
2023-05-06T16:32:20.449Z,101527.88
2023-05-06T16:34:47.018Z,101534.97
2023-05-06T16:37:15.304Z,101547.34
2023-05-06T16:39:41.843Z,101532.25
2023-05-06T16:42:08.282Z,101537.31
2023-05-06T16:44:35.188Z,101537.78
2023-05-06T16:47:01.966Z,101537.22
2023-05-06T16:49:28.379Z,101548.53
2023-05-06T16:51:54.912Z,101534.91
2023-05-06T16:54:21.348Z,101542.59
2023-05-06T16:56:52.065Z,101537.56
2023-05-06T16:59:21.665Z,101542.38
2023-05-06T17:01:48.798Z,101544.28
2023-05-06T17:04:17.933Z,101521.34
2023-05-06T17:06:44.375Z,101556.66
2023-05-06T17:09:11.045Z,101534.63
2023-05-06T17:11:37.542Z,101544.47
2023-05-06T17:14:03.991Z,101570.03
2023-05-06T17:16:30.469Z,101565.47
2023-05-06T17:18:56.970Z,101551.88
2023-05-06T17:21:23.785Z,101551.72
2023-05-06T17:23:51.364Z,101567.16
2023-05-06T17:26:21.053Z,101570.56
2023-05-06T17:28:51.073Z,101564.75
2023-05-06T17:31:22.498Z,101569.47
2023-05-06T17:33:49.056Z,101557.47
2023-05-06T17:36:18.484Z,101566.47
2023-05-06T17:38:44.991Z,101574.63
2023-05-06T17:41:11.970Z,101557.84
2023-05-06T17:43:38.610Z,101568.09
2023-05-06T17:46:06.584Z,101550.72
2023-05-06T17:48:33.112Z,101559.59
2023-05-06T17:51:03.236Z,101575.91
2023-05-06T17:53:29.954Z,101577.44
2023-05-06T17:55:56.382Z,101573.66
2023-05-06T17:58:22.893Z,101572.69
2023-05-06T18:00:49.321Z,101572.22
2023-05-06T18:03:15.819Z,101572.09
2023-05-06T18:05:42.253Z,101587.09
2023-05-06T18:08:09.542Z,101580.28
2023-05-06T18:10:36.125Z,101594.59
2023-05-06T18:13:02.684Z,101588.66
2023-05-06T18:15:29.247Z,101585.91
2023-05-06T18:17:55.878Z,101596.97
2023-05-06T18:20:23.179Z,101573.34
2023-05-06T18:22:49.631Z,101581.75
2023-05-06T18:25:16.231Z,101588.47
2023-05-06T18:27:42.909Z,101589.19
2023-05-06T18:30:09.614Z,101583.44
2023-05-06T18:32:36.106Z,101599.94
2023-05-06T18:35:02.541Z,101569.81
2023-05-06T18:37:31.924Z,101588.34
2023-05-06T18:39:58.630Z,101590.09
2023-05-06T18:42:27.448Z,101602.16
2023-05-06T18:44:54.413Z,101585.84
2023-05-06T18:47:21.004Z,101611.69
2023-05-06T18:49:47.663Z,101610.34
2023-05-06T18:52:15.271Z,101617.44
2023-05-06T18:54:42.037Z,101611.78
2023-05-06T18:57:08.565Z,101616.28
2023-05-06T18:59:36.285Z,101609.03
2023-05-06T19:02:03.866Z,101579.63
2023-05-06T19:04:31.713Z,101588.19
2023-05-06T19:06:58.283Z,101611.28
2023-05-06T19:09:24.936Z,101603.25
2023-05-06T19:11:51.501Z,101598.69
2023-05-06T19:14:19.536Z,101614.81
2023-05-06T19:16:46.543Z,101612.84
2023-05-06T19:19:13.101Z,101581.28
2023-05-06T19:21:39.637Z,101616.22
2023-05-06T19:24:06.501Z,101608.13
2023-05-06T19:26:33.115Z,101584.81
2023-05-06T19:28:59.621Z,101581.91
2023-05-06T19:31:26.397Z,101605.72
2023-05-06T19:33:52.904Z,101630.22
2023-05-06T19:36:19.438Z,101605.63
2023-05-06T19:38:45.902Z,101604.16
2023-05-06T19:41:13.202Z,101633.94
2023-05-06T19:43:44.204Z,101612.22
2023-05-06T19:46:11.778Z,101609.25
2023-05-06T19:48:39.153Z,101616.16
2023-05-06T19:51:06.685Z,101622.75
2023-05-06T19:53:34.128Z,101618.34
2023-05-06T19:56:13.542Z,101591.66
2023-05-06T19:58:40.694Z,101625.53
2023-05-06T20:01:07.382Z,101618.19
2023-05-06T20:03:35.125Z,101630.16
2023-05-06T20:06:01.671Z,101628.41
2023-05-06T20:08:28.283Z,101610.91
2023-05-06T20:10:55.010Z,101633.19
2023-05-06T20:13:21.643Z,101641.31
2023-05-06T20:15:48.814Z,101645.53
2023-05-06T20:18:15.449Z,101623.91
2023-05-06T20:20:43.323Z,101631.41
2023-05-06T20:23:09.781Z,101630.22
2023-05-06T20:25:37.367Z,101626.53
2023-05-06T20:28:05.956Z,101649.16
2023-05-06T20:30:33.207Z,101631.56
2023-05-06T20:33:02.080Z,101632.44
2023-05-06T20:35:28.574Z,101635.94
2023-05-06T20:37:55.880Z,101645.53
2023-05-06T20:40:22.476Z,101651.78
2023-05-06T20:42:49.077Z,101639.91
2023-05-06T20:45:15.646Z,101648.97
2023-05-06T20:47:42.283Z,101622.69
2023-05-06T20:50:09.426Z,101645.84
2023-05-06T20:52:35.937Z,101618.88
2023-05-06T20:55:03.293Z,101644.38
2023-05-06T20:57:29.812Z,101625.75
2023-05-06T20:59:56.293Z,101641.38
2023-05-06T21:02:25.029Z,101663.31
2023-05-06T21:04:51.890Z,101634.66
2023-05-06T21:07:18.264Z,101655.84
2023-05-06T21:09:45.759Z,101641.03
2023-05-06T21:12:12.786Z,101662.94
2023-05-06T21:14:39.705Z,101663.88
2023-05-06T21:17:06.236Z,101655.03
2023-05-06T21:19:32.754Z,101630.41
2023-05-06T21:21:59.185Z,101652.94
2023-05-06T21:24:26.073Z,101647.28
2023-05-06T21:26:53.699Z,101665.69
2023-05-06T21:29:21.341Z,101654.03
2023-05-06T21:31:47.974Z,101659.63
2023-05-06T21:34:14.502Z,101652.38
2023-05-06T21:36:40.984Z,101660.31
2023-05-06T21:39:16.879Z,101654.50
2023-05-06T21:41:43.384Z,101659.63
2023-05-06T21:44:10.392Z,101643.09
2023-05-06T21:46:38.080Z,101631.91
2023-05-06T21:49:04.842Z,101635.25
2023-05-06T21:51:33.204Z,101652.00
2023-05-06T21:53:59.804Z,101638.94
2023-05-06T21:56:26.458Z,101654.19
2023-05-06T21:58:54.699Z,101650.34
2023-05-06T22:01:22.048Z,101651.53
2023-05-06T22:03:48.632Z,101644.63
2023-05-06T22:06:15.695Z,101649.50
2023-05-06T22:08:42.161Z,101646.00
2023-05-06T22:11:10.595Z,101662.22
2023-05-06T22:13:37.185Z,101617.56
2023-05-06T22:16:04.172Z,101651.44
2023-05-06T22:18:31.927Z,101642.09
2023-05-06T22:20:58.738Z,101656.88
2023-05-06T22:23:25.527Z,101671.50
2023-05-06T22:25:52.241Z,101655.31
2023-05-06T22:28:19.010Z,101669.94
2023-05-06T22:30:45.559Z,101662.78
2023-05-06T22:33:12.158Z,101660.69
2023-05-06T22:35:38.622Z,101653.56
2023-05-06T22:38:05.056Z,101661.72
2023-05-06T22:40:31.514Z,101663.69
2023-05-06T22:42:57.929Z,101652.66
2023-05-06T22:45:24.383Z,101661.66
2023-05-06T22:47:50.966Z,101669.13
2023-05-06T22:50:17.532Z,101668.56
2023-05-06T22:52:43.935Z,101675.00
2023-05-06T22:55:11.052Z,101660.56
2023-05-06T22:57:37.825Z,101671.63
2023-05-06T23:00:05.819Z,101672.16
2023-05-06T23:02:32.939Z,101665.06
2023-05-06T23:04:59.474Z,101664.75
2023-05-06T23:07:25.976Z,101674.47
2023-05-06T23:09:52.435Z,101679.59
2023-05-06T23:12:18.852Z,101680.16
2023-05-06T23:14:45.284Z,101682.44
2023-05-06T23:17:11.781Z,101694.06
2023-05-06T23:19:38.193Z,101686.81
2023-05-06T23:22:04.631Z,101690.13
2023-05-06T23:24:31.060Z,101685.72
2023-05-06T23:26:57.535Z,101680.91
2023-05-06T23:29:24.006Z,101691.06
2023-05-06T23:31:50.470Z,101677.84
2023-05-06T23:34:16.903Z,101673.47
2023-05-06T23:36:43.370Z,101675.50
2023-05-06T23:39:12.215Z,101678.88
2023-05-06T23:41:38.781Z,101686.91
2023-05-06T23:44:06.253Z,101674.31
2023-05-06T23:46:33.068Z,101671.03
2023-05-06T23:48:59.597Z,101662.38
2023-05-06T23:51:26.582Z,101691.16
2023-05-06T23:53:53.118Z,101678.34
2023-05-06T23:56:20.588Z,101673.06
2023-05-06T23:58:47.029Z,101680.78
